METAR Data
IDs: Format: Raw Decoded Include TAF

Data at: 0211 UTC 20 Jan 2022

KRZL 200155Z AUTO 32006KT 10SM CLR M08/M13 A3030 RMK AO2